createdAt,value
2023-02-04T00:02:00.507Z,85.05
2023-02-04T00:04:27.049Z,85.61
2023-02-04T00:06:53.708Z,85.57
2023-02-04T00:09:20.306Z,85.76
2023-02-04T00:11:46.840Z,86.13
2023-02-04T00:14:13.562Z,85.96
2023-02-04T00:16:40.134Z,85.84
2023-02-04T00:19:06.628Z,85.88
2023-02-04T00:21:33.221Z,85.88
2023-02-04T00:23:59.770Z,85.78
2023-02-04T00:26:26.305Z,85.86
2023-02-04T00:28:52.867Z,85.96
2023-02-04T00:31:19.522Z,85.96
2023-02-04T00:33:46.087Z,85.90
2023-02-04T00:36:12.672Z,86.00
2023-02-04T00:38:39.236Z,86.08
2023-02-04T00:41:07.044Z,86.00
2023-02-04T00:43:33.719Z,86.08
2023-02-04T00:46:00.502Z,86.47
2023-02-04T00:48:27.161Z,85.97
2023-02-04T00:50:54.367Z,86.24
2023-02-04T00:53:20.964Z,86.15
2023-02-04T00:55:47.600Z,86.31
2023-02-04T00:58:14.261Z,86.24
2023-02-04T01:00:40.841Z,86.28
2023-02-04T01:03:07.817Z,86.64
2023-02-04T01:05:34.405Z,87.00
2023-02-04T01:08:00.975Z,87.18
2023-02-04T01:10:28.672Z,86.66
2023-02-04T01:12:55.590Z,86.67
2023-02-04T01:15:23.073Z,87.03
2023-02-04T01:17:49.801Z,87.33
2023-02-04T01:20:16.708Z,86.74
2023-02-04T01:22:43.247Z,87.13
2023-02-04T01:25:10.060Z,87.49
2023-02-04T01:27:36.685Z,87.52
2023-02-04T01:30:04.983Z,87.47
2023-02-04T01:32:31.552Z,87.54
2023-02-04T01:34:58.125Z,87.73
2023-02-04T01:37:24.658Z,87.64
2023-02-04T01:39:51.300Z,87.40
2023-02-04T01:42:17.962Z,87.99
2023-02-04T01:44:44.673Z,88.30
2023-02-04T01:47:11.539Z,88.30
2023-02-04T01:49:38.101Z,88.23
2023-02-04T01:52:05.257Z,88.54
2023-02-04T01:54:32.286Z,88.51
2023-02-04T01:56:59.167Z,88.67
2023-02-04T01:59:27.002Z,88.47
2023-02-04T02:01:54.759Z,88.52
2023-02-04T02:04:33.769Z,88.31
2023-02-04T02:07:03.794Z,88.71
2023-02-04T02:09:31.507Z,88.59
2023-02-04T02:11:58.843Z,88.72
2023-02-04T02:14:25.501Z,88.69
2023-02-04T02:16:52.163Z,89.06
2023-02-04T02:19:27.367Z,89.04
2023-02-04T02:22:05.105Z,89.10
2023-02-04T02:24:34.646Z,89.17
2023-02-04T02:27:08.455Z,88.90
2023-02-04T02:29:36.654Z,89.04
2023-02-04T02:32:03.372Z,89.28
2023-02-04T02:34:30.723Z,88.84
2023-02-04T02:36:59.471Z,88.95
2023-02-04T02:39:26.910Z,88.57
2023-02-04T02:41:55.120Z,88.87
2023-02-04T02:44:22.057Z,88.59
2023-02-04T02:46:49.041Z,88.94
2023-02-04T02:49:18.087Z,88.51
2023-02-04T02:51:45.994Z,88.63
2023-02-04T02:54:28.389Z,88.35
2023-02-04T02:56:56.036Z,88.61
2023-02-04T02:59:23.476Z,88.47
2023-02-04T03:01:55.258Z,88.57
2023-02-04T03:04:22.475Z,88.57
2023-02-04T03:06:49.769Z,88.20
2023-02-04T03:09:16.523Z,88.41
2023-02-04T03:11:43.299Z,88.15
2023-02-04T03:14:09.908Z,88.10
2023-02-04T03:16:38.034Z,88.14
2023-02-04T03:19:07.648Z,88.01
2023-02-04T03:21:35.159Z,88.17
2023-02-04T03:24:02.047Z,87.80
2023-02-04T03:26:28.632Z,88.12
2023-02-04T03:28:55.204Z,88.12
2023-02-04T03:31:22.270Z,88.13
2023-02-04T03:33:48.865Z,88.35
2023-02-04T03:36:15.425Z,88.51
2023-02-04T03:38:42.038Z,88.18
2023-02-04T03:41:08.609Z,88.10
2023-02-04T03:43:35.287Z,88.34
2023-02-04T03:46:02.101Z,88.26
2023-02-04T03:48:28.663Z,88.02
2023-02-04T03:50:55.182Z,88.03
2023-02-04T03:53:22.312Z,87.83
2023-02-04T03:55:48.866Z,88.18
2023-02-04T03:58:15.530Z,87.96
2023-02-04T04:00:42.199Z,88.41
2023-02-04T04:03:09.044Z,87.71
2023-02-04T04:05:35.716Z,87.50
2023-02-04T04:08:02.440Z,87.27
2023-02-04T04:10:29.591Z,87.29
2023-02-04T04:12:56.926Z,87.12
2023-02-04T04:15:23.980Z,86.59
2023-02-04T04:17:50.705Z,86.57
2023-02-04T04:20:17.576Z,86.82
2023-02-04T04:22:45.874Z,85.95
2023-02-04T04:25:12.696Z,86.17
2023-02-04T04:27:39.284Z,86.38
2023-02-04T04:30:06.246Z,85.72
2023-02-04T04:32:32.915Z,85.72
2023-02-04T04:34:59.601Z,85.67
2023-02-04T04:37:26.364Z,85.13
2023-02-04T04:39:53.326Z,85.59
2023-02-04T04:42:20.063Z,85.27
2023-02-04T04:44:46.603Z,85.34
2023-02-04T04:47:13.169Z,84.84
2023-02-04T04:49:39.735Z,84.04
2023-02-04T04:52:06.294Z,84.05
2023-02-04T04:54:32.829Z,84.12
2023-02-04T04:56:59.402Z,84.19
2023-02-04T04:59:25.970Z,83.60
2023-02-04T05:01:52.651Z,83.96
2023-02-04T05:04:19.202Z,83.48
2023-02-04T05:06:46.091Z,83.30
2023-02-04T05:09:12.727Z,83.01
2023-02-04T05:11:39.261Z,83.42
2023-02-04T05:14:05.856Z,83.10
2023-02-04T05:16:32.503Z,83.29
2023-02-04T05:18:59.066Z,83.02
2023-02-04T05:21:25.625Z,83.16
2023-02-04T05:23:52.171Z,82.95
2023-02-04T05:26:29.490Z,83.27
2023-02-04T05:28:57.010Z,83.24
2023-02-04T05:31:23.722Z,82.83
2023-02-04T05:33:50.412Z,82.92
2023-02-04T05:36:17.899Z,83.24
2023-02-04T05:38:44.647Z,83.23
2023-02-04T05:41:11.206Z,83.24
2023-02-04T05:43:37.821Z,83.19
2023-02-04T05:46:04.744Z,82.97
2023-02-04T05:48:31.436Z,83.38
2023-02-04T05:50:57.982Z,83.56
2023-02-04T05:53:26.166Z,83.56
2023-02-04T05:55:52.905Z,83.72
2023-02-04T05:58:19.731Z,83.92
2023-02-04T06:00:46.396Z,83.89
2023-02-04T06:03:14.531Z,83.42
2023-02-04T06:05:41.366Z,83.41
2023-02-04T06:08:08.149Z,83.15
2023-02-04T06:10:34.687Z,83.17
2023-02-04T06:13:01.286Z,82.99
2023-02-04T06:15:27.877Z,83.25
2023-02-04T06:17:54.481Z,83.10
2023-02-04T06:20:21.047Z,83.21
2023-02-04T06:22:51.644Z,83.77
2023-02-04T06:25:18.994Z,83.53
2023-02-04T06:27:45.617Z,83.44
2023-02-04T06:30:12.670Z,83.18
2023-02-04T06:32:39.242Z,82.73
2023-02-04T06:35:06.270Z,83.59
2023-02-04T06:37:32.906Z,82.35
2023-02-04T06:39:59.501Z,82.08
2023-02-04T06:42:26.066Z,81.74
2023-02-04T06:44:53.444Z,81.67
2023-02-04T06:47:20.157Z,81.97
2023-02-04T06:49:46.719Z,81.81
2023-02-04T06:52:13.314Z,81.83
2023-02-04T06:54:39.903Z,81.77
2023-02-04T06:57:09.418Z,82.43
2023-02-04T06:59:38.161Z,82.33
2023-02-04T07:02:06.377Z,82.21
2023-02-04T07:04:33.724Z,82.39
2023-02-04T07:07:00.420Z,82.73
2023-02-04T07:09:27.382Z,82.37
2023-02-04T07:11:54.183Z,82.54
2023-02-04T07:14:20.780Z,81.88
2023-02-04T07:16:47.304Z,81.93
2023-02-04T07:19:13.874Z,82.08
2023-02-04T07:21:40.450Z,82.02
2023-02-04T07:24:07.106Z,81.78
2023-02-04T07:26:34.397Z,82.15
2023-02-04T07:29:01.084Z,82.09
2023-02-04T07:31:27.900Z,82.38
2023-02-04T07:33:54.487Z,82.36
2023-02-04T07:36:21.124Z,81.95
2023-02-04T07:38:47.752Z,82.09
2023-02-04T07:41:14.385Z,82.27
2023-02-04T07:43:41.086Z,82.28
2023-02-04T07:46:07.768Z,82.22
2023-02-04T07:48:34.373Z,82.19
2023-02-04T07:51:00.986Z,82.17
2023-02-04T07:53:27.539Z,82.52
2023-02-04T07:55:54.095Z,82.28
2023-02-04T07:58:20.695Z,81.74
2023-02-04T08:00:47.232Z,81.83
2023-02-04T08:03:13.776Z,81.67
2023-02-04T08:05:40.379Z,81.66
2023-02-04T08:08:06.979Z,81.96
2023-02-04T08:10:33.871Z,81.74
2023-02-04T08:13:00.792Z,81.34
2023-02-04T08:15:27.355Z,81.68
2023-02-04T08:17:53.886Z,81.76
2023-02-04T08:20:20.522Z,81.63
2023-02-04T08:22:47.152Z,81.25
2023-02-04T08:25:13.689Z,81.24
2023-02-04T08:27:40.324Z,81.21
2023-02-04T08:30:07.562Z,80.42
2023-02-04T08:32:34.172Z,80.89
2023-02-04T08:35:01.188Z,80.38
2023-02-04T08:37:27.800Z,80.65
2023-02-04T08:39:54.407Z,80.29
2023-02-04T08:42:20.931Z,80.26
2023-02-04T08:44:47.621Z,80.12
2023-02-04T08:47:14.206Z,80.28
2023-02-04T08:49:40.803Z,79.88
2023-02-04T08:52:08.355Z,79.89
2023-02-04T08:54:35.711Z,79.75
2023-02-04T08:57:03.037Z,79.17
2023-02-04T08:59:29.947Z,78.47
2023-02-04T09:01:56.550Z,78.60
2023-02-04T09:04:24.709Z,78.44
2023-02-04T09:06:51.649Z,77.68
2023-02-04T09:09:19.367Z,77.49
2023-02-04T09:11:47.551Z,77.41
2023-02-04T09:14:14.301Z,77.10
2023-02-04T09:16:40.999Z,76.92
2023-02-04T09:19:09.284Z,76.96
2023-02-04T09:21:35.841Z,75.84
2023-02-04T09:24:02.491Z,75.19
2023-02-04T09:26:29.199Z,75.14
2023-02-04T09:28:55.842Z,75.58
2023-02-04T09:31:22.626Z,75.56
2023-02-04T09:33:49.333Z,75.26
2023-02-04T09:36:15.919Z,75.45
2023-02-04T09:38:42.623Z,74.54
2023-02-04T09:41:12.240Z,74.67
2023-02-04T09:43:41.736Z,75.17
2023-02-04T09:46:20.618Z,74.52
2023-02-04T09:48:47.812Z,74.61
2023-02-04T09:51:20.988Z,74.08
2023-02-04T09:53:48.869Z,73.68
2023-02-04T09:56:15.662Z,74.03
2023-02-04T09:58:43.010Z,74.00
2023-02-04T10:01:16.194Z,74.59
2023-02-04T10:03:47.832Z,73.63
2023-02-04T10:06:20.245Z,73.02
2023-02-04T10:08:48.983Z,73.51
2023-02-04T10:11:18.191Z,72.71
2023-02-04T10:13:50.320Z,73.54
2023-02-04T10:16:29.890Z,73.02
2023-02-04T10:19:02.811Z,72.82
2023-02-04T10:21:39.885Z,72.74
2023-02-04T10:24:17.013Z,72.01
2023-02-04T10:26:43.643Z,72.60
2023-02-04T10:29:19.272Z,71.83
2023-02-04T10:31:50.788Z,71.01
2023-02-04T10:34:19.873Z,71.25
2023-02-04T10:36:54.591Z,70.19
2023-02-04T10:39:23.221Z,70.28
2023-02-04T10:41:54.888Z,69.76
2023-02-04T10:44:26.833Z,68.74
2023-02-04T10:47:08.806Z,68.32
2023-02-04T10:49:36.620Z,67.73
2023-02-04T10:52:13.812Z,67.02
2023-02-04T10:54:40.414Z,67.41
2023-02-04T10:57:16.100Z,66.99
2023-02-04T10:59:44.014Z,66.45
2023-02-04T11:02:41.442Z,65.80
2023-02-04T11:05:32.552Z,64.99
2023-02-04T11:07:59.823Z,64.65
2023-02-04T11:10:33.368Z,64.59
2023-02-04T11:13:03.534Z,63.87
2023-02-04T11:15:50.847Z,63.81
2023-02-04T11:18:20.718Z,64.25
2023-02-04T11:20:49.163Z,63.28
2023-02-04T11:23:28.484Z,62.71
2023-02-04T11:26:07.491Z,62.32
2023-02-04T11:28:48.349Z,62.20
2023-02-04T11:31:21.592Z,59.54
2023-02-04T11:33:50.086Z,59.63
2023-02-04T11:36:17.798Z,60.18
2023-02-04T11:38:47.425Z,60.42
2023-02-04T11:41:24.826Z,60.89
2023-02-04T11:43:53.324Z,60.99
2023-02-04T11:46:20.552Z,61.25
2023-02-04T11:48:47.207Z,61.18
2023-02-04T11:51:18.502Z,62.28
2023-02-04T11:53:51.826Z,62.00
2023-02-04T11:56:20.427Z,62.24
2023-02-04T11:58:48.682Z,61.57
2023-02-04T12:01:29.947Z,62.10
2023-02-04T12:03:59.752Z,61.49
2023-02-04T12:06:29.005Z,61.14
2023-02-04T12:09:14.254Z,60.69
2023-02-04T12:11:51.403Z,60.32
2023-02-04T12:14:18.715Z,60.21
2023-02-04T12:16:47.171Z,59.17
2023-02-04T12:19:14.573Z,59.73
2023-02-04T12:21:41.275Z,60.32
2023-02-04T12:24:07.922Z,59.82
2023-02-04T12:26:34.637Z,59.74
2023-02-04T12:29:03.515Z,58.76
2023-02-04T12:31:30.517Z,58.96
2023-02-04T12:33:57.647Z,58.43
2023-02-04T12:36:24.952Z,58.21
2023-02-04T12:38:51.518Z,58.58
2023-02-04T12:41:19.930Z,58.60
2023-02-04T12:43:50.406Z,56.98
2023-02-04T12:46:17.931Z,56.42
2023-02-04T12:48:44.600Z,56.60
2023-02-04T12:51:11.178Z,55.92
2023-02-04T12:53:37.780Z,55.17
2023-02-04T12:56:04.759Z,56.12
2023-02-04T12:58:31.340Z,56.37
2023-02-04T13:00:57.983Z,56.33
2023-02-04T13:03:25.385Z,57.00
2023-02-04T13:05:51.987Z,56.54
2023-02-04T13:08:18.601Z,56.20
2023-02-04T13:10:45.184Z,56.43
2023-02-04T13:13:11.760Z,56.07
2023-02-04T13:15:38.308Z,56.40
2023-02-04T13:18:04.892Z,56.46
2023-02-04T13:20:31.447Z,56.43
2023-02-04T13:22:57.984Z,56.90
2023-02-04T13:25:24.507Z,56.25
2023-02-04T13:27:51.157Z,54.53
2023-02-04T13:30:18.124Z,54.59
2023-02-04T13:32:44.753Z,55.48
2023-02-04T13:35:11.479Z,54.31
2023-02-04T13:37:38.681Z,54.22
2023-02-04T13:40:07.823Z,54.31
2023-02-04T13:42:34.415Z,54.11
2023-02-04T13:45:01.080Z,54.34
2023-02-04T13:47:27.643Z,54.44
2023-02-04T13:49:54.188Z,55.10
2023-02-04T13:52:21.343Z,54.47
2023-02-04T13:54:47.889Z,54.41
2023-02-04T13:57:14.439Z,54.40
2023-02-04T13:59:41.201Z,52.96
2023-02-04T14:02:09.491Z,53.75
2023-02-04T14:04:36.956Z,53.89
2023-02-04T14:07:03.652Z,54.58
2023-02-04T14:09:30.168Z,54.16
2023-02-04T14:11:56.721Z,54.26
2023-02-04T14:14:23.365Z,54.45
2023-02-04T14:16:49.944Z,54.90
2023-02-04T14:19:17.077Z,54.77
2023-02-04T14:21:43.700Z,54.43
2023-02-04T14:24:10.322Z,54.68
2023-02-04T14:26:36.881Z,54.29
2023-02-04T14:29:04.587Z,54.33
2023-02-04T14:31:31.221Z,54.93
2023-02-04T14:33:59.405Z,54.41
2023-02-04T14:36:25.941Z,55.10
2023-02-04T14:38:52.463Z,54.96
2023-02-04T14:41:21.331Z,54.79
2023-02-04T14:43:48.045Z,55.48
2023-02-04T14:46:14.914Z,55.53
2023-02-04T14:48:41.670Z,54.88
2023-02-04T14:51:08.245Z,54.59
2023-02-04T14:53:34.806Z,55.39
2023-02-04T14:56:01.369Z,54.65
2023-02-04T14:58:28.164Z,54.77
2023-02-04T15:00:55.188Z,54.94
2023-02-04T15:03:22.016Z,55.67
2023-02-04T15:05:48.584Z,55.62
2023-02-04T15:08:15.119Z,55.57
2023-02-04T15:10:41.737Z,55.78
2023-02-04T15:13:08.598Z,55.53
2023-02-04T15:15:35.200Z,55.74
2023-02-04T15:18:01.754Z,55.17
2023-02-04T15:20:28.468Z,55.54
2023-02-04T15:22:56.479Z,54.93
2023-02-04T15:25:23.870Z,55.24
2023-02-04T15:27:50.467Z,55.49
2023-02-04T15:30:17.421Z,54.73
2023-02-04T15:32:45.976Z,55.04
2023-02-04T15:35:13.578Z,55.19
2023-02-04T15:37:40.200Z,56.34
2023-02-04T15:40:08.712Z,55.69
2023-02-04T15:42:35.783Z,56.20
2023-02-04T15:45:02.435Z,56.46
2023-02-04T15:47:28.993Z,56.35
2023-02-04T15:49:55.581Z,56.45
2023-02-04T15:52:24.937Z,56.19
2023-02-04T15:54:53.098Z,56.32
2023-02-04T15:57:19.676Z,57.65
2023-02-04T15:59:46.863Z,57.77
2023-02-04T16:02:13.894Z,57.28
2023-02-04T16:04:41.644Z,58.13
2023-02-04T16:07:08.485Z,58.69
2023-02-04T16:09:35.775Z,58.63
2023-02-04T16:12:02.471Z,59.21
2023-02-04T16:14:29.150Z,59.15
2023-02-04T16:16:55.761Z,59.92
2023-02-04T16:19:22.316Z,59.84
2023-02-04T16:21:48.873Z,60.54
2023-02-04T16:24:18.456Z,60.58
2023-02-04T16:26:46.147Z,60.56
2023-02-04T16:29:12.798Z,61.05
2023-02-04T16:31:39.388Z,61.25
2023-02-04T16:34:06.097Z,61.68
2023-02-04T16:36:32.755Z,61.93
2023-02-04T16:39:00.195Z,61.69
2023-02-04T16:41:26.900Z,62.17
2023-02-04T16:43:53.521Z,62.92
2023-02-04T16:46:20.123Z,62.69
2023-02-04T16:48:46.701Z,63.29
2023-02-04T16:51:13.317Z,63.18
2023-02-04T16:53:39.944Z,62.88
2023-02-04T16:56:07.246Z,62.96
2023-02-04T16:58:33.846Z,63.04
2023-02-04T17:01:00.499Z,63.50
2023-02-04T17:03:28.163Z,63.56
2023-02-04T17:05:54.711Z,63.94
2023-02-04T17:08:21.326Z,63.72
2023-02-04T17:11:07.265Z,63.57
2023-02-04T17:13:34.317Z,63.66
2023-02-04T17:16:01.434Z,63.55
2023-02-04T17:18:29.972Z,63.78
2023-02-04T17:20:57.410Z,64.18
2023-02-04T17:23:24.023Z,63.98
2023-02-04T17:25:50.724Z,63.44
2023-02-04T17:28:17.502Z,63.91
2023-02-04T17:30:44.178Z,63.53
2023-02-04T17:33:10.785Z,63.99
2023-02-04T17:35:37.316Z,64.11
2023-02-04T17:38:03.915Z,63.79
2023-02-04T17:40:30.493Z,63.72
2023-02-04T17:42:57.087Z,64.15
2023-02-04T17:45:24.576Z,64.05
2023-02-04T17:47:51.147Z,64.10
2023-02-04T17:50:19.178Z,64.57
2023-02-04T17:52:45.753Z,64.65
2023-02-04T17:55:27.740Z,64.81
2023-02-04T17:57:55.587Z,65.18
2023-02-04T18:00:25.180Z,65.04
2023-02-04T18:02:52.868Z,65.54
2023-02-04T18:05:22.521Z,65.25
2023-02-04T18:08:13.293Z,65.40
2023-02-04T18:10:43.645Z,64.68
2023-02-04T18:13:15.151Z,65.30
2023-02-04T18:15:44.782Z,65.12
2023-02-04T18:18:32.462Z,65.80
2023-02-04T18:21:03.063Z,65.79
2023-02-04T18:23:32.618Z,65.94
2023-02-04T18:26:08.635Z,65.93
2023-02-04T18:28:36.856Z,65.90
2023-02-04T18:31:04.158Z,66.40
2023-02-04T18:33:33.068Z,66.53
2023-02-04T18:36:01.262Z,66.75
2023-02-04T18:38:37.192Z,66.90
2023-02-04T18:41:18.927Z,67.08
2023-02-04T18:43:50.816Z,67.15
2023-02-04T18:46:27.080Z,67.60
2023-02-04T18:49:05.447Z,67.67
2023-02-04T18:51:35.221Z,68.21
2023-02-04T18:54:23.274Z,68.00
2023-02-04T18:56:49.909Z,68.30
2023-02-04T18:59:18.722Z,68.99
2023-02-04T19:01:47.863Z,69.21
2023-02-04T19:04:22.318Z,69.35
2023-02-04T19:06:52.234Z,69.19
2023-02-04T19:09:24.833Z,69.62
2023-02-04T19:11:54.253Z,69.39
2023-02-04T19:14:39.044Z,69.45
2023-02-04T19:17:16.923Z,69.73
2023-02-04T19:19:53.282Z,69.98
2023-02-04T19:22:40.922Z,70.03
2023-02-04T19:25:46.466Z,69.94
2023-02-04T19:28:25.079Z,70.44
2023-02-04T19:30:58.461Z,70.43
2023-02-04T19:33:33.555Z,70.84
2023-02-04T19:36:34.053Z,70.97
2023-02-04T19:39:19.378Z,71.10
2023-02-04T19:41:51.503Z,71.37
2023-02-04T19:44:32.739Z,71.46
2023-02-04T19:47:18.512Z,71.53
2023-02-04T19:49:45.080Z,71.83
2023-02-04T19:52:30.492Z,72.01
2023-02-04T19:55:19.717Z,73.00
2023-02-04T19:57:49.925Z,72.55
2023-02-04T20:00:37.403Z,72.54
2023-02-04T20:03:16.492Z,72.35
2023-02-04T20:05:43.872Z,72.84
2023-02-04T20:08:41.507Z,73.09
2023-02-04T20:11:29.844Z,72.71
2023-02-04T20:14:14.724Z,72.88
2023-02-04T20:16:49.557Z,73.00
2023-02-04T20:19:22.137Z,73.40
2023-02-04T20:22:20.968Z,73.22
2023-02-04T20:24:48.781Z,73.34
2023-02-04T20:27:36.173Z,72.99
2023-02-04T20:30:10.831Z,73.35
2023-02-04T20:32:40.782Z,73.43
2023-02-04T20:35:09.801Z,73.07
2023-02-04T20:37:36.609Z,73.04
2023-02-04T20:40:21.540Z,73.24
2023-02-04T20:43:09.604Z,73.11
2023-02-04T20:45:39.141Z,73.15
2023-02-04T20:48:18.010Z,73.09
2023-02-04T20:50:48.344Z,73.24
2023-02-04T20:53:28.414Z,73.64
2023-02-04T20:56:05.162Z,73.65
2023-02-04T20:58:34.753Z,73.11
2023-02-04T21:01:01.383Z,73.82
2023-02-04T21:03:34.070Z,73.46
2023-02-04T21:06:01.504Z,73.66
2023-02-04T21:08:40.881Z,73.66
2023-02-04T21:11:08.057Z,73.67
2023-02-04T21:13:35.328Z,73.90
2023-02-04T21:16:02.384Z,73.95
2023-02-04T21:18:30.171Z,74.06
2023-02-04T21:20:57.429Z,74.29
2023-02-04T21:23:23.997Z,74.27
2023-02-04T21:25:50.688Z,74.52
2023-02-04T21:28:17.408Z,74.73
2023-02-04T21:30:44.090Z,74.84
2023-02-04T21:33:11.693Z,74.67
2023-02-04T21:35:39.593Z,75.23
2023-02-04T21:38:07.280Z,75.14
2023-02-04T21:40:36.021Z,75.26
2023-02-04T21:43:07.580Z,75.29
2023-02-04T21:45:36.519Z,75.42
2023-02-04T21:48:04.807Z,75.51
2023-02-04T21:50:33.064Z,75.34
2023-02-04T21:53:00.116Z,75.37
2023-02-04T21:55:27.131Z,75.50
2023-02-04T21:57:53.738Z,74.97
2023-02-04T22:00:23.758Z,75.31
2023-02-04T22:02:51.759Z,75.68
2023-02-04T22:05:19.511Z,75.45
2023-02-04T22:07:46.647Z,75.45
2023-02-04T22:10:16.417Z,75.50
2023-02-04T22:12:43.046Z,75.24
2023-02-04T22:15:10.237Z,75.30
2023-02-04T22:17:36.788Z,75.28
2023-02-04T22:20:04.019Z,75.24
2023-02-04T22:22:30.803Z,75.71
2023-02-04T22:24:57.408Z,75.96
2023-02-04T22:27:24.041Z,76.06
2023-02-04T22:29:50.584Z,76.01
2023-02-04T22:32:17.153Z,76.12
2023-02-04T22:34:43.705Z,76.00
2023-02-04T22:37:10.282Z,75.74
2023-02-04T22:39:36.836Z,75.74
2023-02-04T22:42:03.682Z,75.54
2023-02-04T22:44:30.305Z,75.83
2023-02-04T22:46:56.909Z,75.68
2023-02-04T22:49:23.544Z,75.77
2023-02-04T22:51:50.162Z,76.03
2023-02-04T22:54:16.804Z,75.82
2023-02-04T22:56:43.429Z,75.90
2023-02-04T22:59:09.969Z,75.83
2023-02-04T23:01:36.647Z,76.12
2023-02-04T23:04:03.398Z,76.25
2023-02-04T23:06:30.026Z,76.01
2023-02-04T23:08:56.793Z,76.17
2023-02-04T23:11:24.837Z,76.06
2023-02-04T23:13:51.440Z,76.22
2023-02-04T23:16:19.109Z,76.12
2023-02-04T23:18:46.452Z,76.33
2023-02-04T23:21:14.085Z,76.50
2023-02-04T23:23:40.946Z,76.29
2023-02-04T23:26:07.595Z,76.30
2023-02-04T23:28:34.219Z,76.78
2023-02-04T23:31:00.834Z,77.09
2023-02-04T23:33:27.460Z,77.11
2023-02-04T23:35:54.112Z,76.84
2023-02-04T23:38:20.690Z,76.73
2023-02-04T23:40:47.235Z,76.81
2023-02-04T23:43:13.786Z,77.00
2023-02-04T23:45:40.413Z,77.19
2023-02-04T23:48:07.118Z,76.95
2023-02-04T23:50:33.653Z,76.98
2023-02-04T23:53:00.710Z,77.51
2023-02-04T23:55:27.334Z,77.47
2023-02-04T23:57:54.172Z,77.97
